Terminal Aerodrome Forecast
Issued by NWS

Home | Current Version | Previous Version | Text Only | Print | Product List | Glossary On
Versions: 1 2 3 4 5 6 7 8 9 10 11 12 13 14 15 16 17 18 19 20 21 22 23 24 25 26 27
000
FTUS41 KILN 220800 AAA
TAFLUK
TAF AMD
KLUK 220859Z 2209/2306 35010KT P6SM FEW020 SCT050
     FM221000 34008KT P6SM SCT040
     FM221600 34008KT P6SM SKC
     FM230100 00000KT P6SM SKC=

USA.gov is the U.S. government's official web portal to all federal, state and local government web resources and services.